Time;durP1;ratioP1;P1;durP2;ratioP2;P2;SDS_P1;SDS_P2;PMS_P1;PMS_P2;Temp;Humidity;BMP_temperature;BMP_pressure;BME280_temperature;BME280_humidity;BME280_pressure;Samples;Min_cycle;Max_cycle;Signal;HPM_P1;HPM_P2
2023/02/03 00:06:37;;;;;;;0.30;0.10;;;5.10;99.90;;;;;;4845068;29;20038;-89
2023/02/03 00:09:34;;;;;;;0.17;0.10;;;5.00;99.90;;;;;;4855812;29;20084;-91
2023/02/03 00:12:38;;;;;;;;;;;;;;;;;;;;;
2023/02/03 00:21:45;;;;;;;0.30;0.13;;;5.00;99.90;;;;;;4846800;29;20411;-90
2023/02/03 00:34:07;;;;;;;0.20;0.10;;;4.90;99.90;;;;;;4834746;29;20034;-89
2023/02/03 00:37:12;;;;;;;0.10;0.00;;;4.90;99.90;;;;;;4835236;29;20030;-90
2023/02/03 00:47:47;;;;;;;2.27;0.10;;;4.90;99.90;;;;;;4837384;29;20622;-89
2023/02/03 00:54:33;;;;;;;0.47;0.10;;;4.90;99.90;;;;;;4834854;29;20034;-90
2023/02/03 00:57:38;;;;;;;0.20;0.03;;;4.90;99.90;;;;;;4839635;29;20033;-89
2023/02/03 01:00:53;;;;;;;;;;;;;;;;;;;;;
2023/02/03 01:04:42;;;;;;;;;;;;;;;;;;;;;
2023/02/03 01:08:14;;;;;;;;;;;;;;;;;;;;;
2023/02/03 01:21:04;;;;;;;;;;;;;;;;;;;;;
2023/02/03 01:24:15;;;;;;;;;;;;;;;;;;;;;
2023/02/03 01:27:18;;;;;;;;;;;;;;;;;;;;;
2023/02/03 01:34:20;;;;;;;;;;;;;;;;;;;;;
2023/02/03 01:37:10;;;;;;;;;;;;;;;;;;;;;
2023/02/03 01:50:14;;;;;;;;;;;;;;;;;;;;;
2023/02/03 01:53:40;;;;;;;;;;;;;;;;;;;;;
2023/02/03 01:56:34;;;;;;;0.30;0.17;;;4.80;99.90;;;;;;4796315;29;20031;-90
2023/02/03 02:02:45;;;;;;;1.43;0.20;;;4.80;99.90;;;;;;4822478;29;20031;-90
2023/02/03 02:05:43;;;;;;;;;;;;;;;;;;;;;
2023/02/03 02:09:01;;;;;;;0.50;0.30;;;4.70;99.90;;;;;;4818488;29;20655;-90
2023/02/03 02:12:21;;;;;;;;;;;;;;;;;;;;;
2023/02/03 02:15:15;;;;;;;1.50;0.40;;;4.70;99.90;;;;;;4825626;29;20026;-90
2023/02/03 02:18:30;;;;;;;0.67;0.20;;;4.70;99.90;;;;;;4852674;24;20079;-90
2023/02/03 02:21:43;;;;;;;0.93;0.23;;;4.80;99.90;;;;;;4815578;29;20077;-90
2023/02/03 02:34:27;;;;;;;;;;;;;;;;;;;;;
2023/02/03 02:37:39;;;;;;;0.67;0.20;;;4.70;99.90;;;;;;4832531;29;20030;-90
2023/02/03 02:40:46;;;;;;;0.57;0.30;;;4.60;99.90;;;;;;4834694;29;20038;-89
2023/02/03 02:43:46;;;;;;;1.87;0.40;;;4.70;99.90;;;;;;4838898;29;20523;-91
2023/02/03 02:46:49;;;;;;;;;;;;;;;;;;;;;
2023/02/03 02:49:58;;;;;;;0.40;0.10;;;4.70;99.90;;;;;;4832554;29;20041;-90
2023/02/03 02:59:38;;;;;;;0.30;0.20;;;4.70;99.90;;;;;;4833443;29;20045;-89
2023/02/03 03:03:03;;;;;;;;;;;;;;;;;;;;;
2023/02/03 03:06:09;;;;;;;;;;;;;;;;;;;;;
2023/02/03 03:09:38;;;;;;;;;;;;;;;;;;;;;
2023/02/03 03:16:44;;;;;;;1.07;0.20;;;4.70;99.90;;;;;;4843102;29;20037;-90
2023/02/03 03:20:02;;;;;;;1.27;0.70;;;4.70;99.90;;;;;;4852320;29;20527;-89
2023/02/03 03:23:41;;;;;;;0.70;0.17;;;4.70;99.90;;;;;;4838747;29;20109;-89
2023/02/03 03:29:30;;;;;;;;;;;;;;;;;;;;;
2023/02/03 03:35:25;;;;;;;2.53;0.20;;;4.70;99.90;;;;;;4840698;29;20121;-90
2023/02/03 03:42:07;;;;;;;0.65;0.25;;;4.60;99.90;;;;;;4821161;29;20041;-90
2023/02/03 03:48:48;;;;;;;;;;;;;;;;;;;;;
2023/02/03 03:52:02;;;;;;;0.80;0.30;;;4.60;99.90;;;;;;4819847;29;20419;-90
2023/02/03 03:55:13;;;;;;;0.70;0.17;;;4.70;99.90;;;;;;4816547;29;20138;-90
2023/02/03 04:01:31;;;;;;;0.60;0.17;;;4.70;99.90;;;;;;4794221;29;20027;-89
2023/02/03 04:04:51;;;;;;;0.80;0.20;;;4.70;99.90;;;;;;4816041;29;20022;-89
2023/02/03 04:08:05;;;;;;;0.70;0.40;;;4.70;99.90;;;;;;4792145;29;20046;-89
2023/02/03 04:14:53;;;;;;;0.47;0.20;;;4.70;99.90;;;;;;4818813;29;20185;-89
2023/02/03 04:20:21;;;;;;;0.60;0.40;;;4.70;99.90;;;;;;3955311;27;20081;-89
2023/02/03 04:27:15;;;;;;;0.93;0.30;;;4.70;99.90;;;;;;4834864;29;20038;-89
2023/02/03 04:30:23;;;;;;;;;;;;;;;;;;;;;
2023/02/03 04:33:41;;;;;;;0.87;0.20;;;4.60;99.90;;;;;;4835280;29;20038;-89
2023/02/03 04:36:17;;;;;;;0.43;0.10;;;4.70;99.90;;;;;;4836397;29;20492;-88
2023/02/03 04:39:10;;;;;;;0.87;0.20;;;4.60;99.90;;;;;;4835297;29;20120;-89
2023/02/03 04:45:14;;;;;;;0.50;0.10;;;4.70;99.90;;;;;;4834214;29;20121;-88
2023/02/03 04:48:26;;;;;;;;;;;;;;;;;;;;;
2023/02/03 04:51:48;;;;;;;;;;;;;;;;;;;;;
2023/02/03 04:54:58;;;;;;;;;;;;;;;;;;;;;
2023/02/03 05:01:18;;;;;;;0.90;0.20;;;4.40;99.90;;;;;;4839667;29;20090;-89
2023/02/03 05:04:13;;;;;;;0.47;0.10;;;4.40;99.90;;;;;;4840514;29;20111;-88
2023/02/03 05:06:55;;;;;;;0.17;0.10;;;4.40;99.90;;;;;;4857142;29;20495;-88
2023/02/03 05:16:08;;;;;;;0.40;0.10;;;4.30;99.90;;;;;;4841718;29;20034;-89
2023/02/03 05:19:19;;;;;;;0.45;0.20;;;4.30;99.90;;;;;;4839714;29;20130;-90
2023/02/03 05:22:11;;;;;;;0.33;0.13;;;4.50;99.90;;;;;;4844381;29;20042;-88
2023/02/03 05:24:42;;;;;;;0.63;0.10;;;4.50;99.90;;;;;;4839036;29;20030;-88
2023/02/03 05:27:14;;;;;;;0.07;0.00;;;4.40;99.90;;;;;;4836400;29;20071;-89
2023/02/03 05:30:20;;;;;;;0.50;0.10;;;4.40;99.90;;;;;;4843608;29;20038;-89
2023/02/03 05:32:48;;;;;;;0.77;0.30;;;4.30;99.90;;;;;;4878783;29;20031;-89
2023/02/03 05:35:33;;;;;;;0.40;0.00;;;4.40;99.90;;;;;;4852612;29;20121;-89
2023/02/03 05:38:01;;;;;;;2.57;0.20;;;4.30;99.90;;;;;;4843515;29;20517;-88
2023/02/03 05:43:21;;;;;;;0.53;0.20;;;4.30;99.90;;;;;;4847713;29;20086;-87
2023/02/03 05:46:17;;;;;;;0.37;0.10;;;4.60;99.90;;;;;;4840908;29;20030;-88
2023/02/03 05:52:22;;;;;;;0.23;0.10;;;4.40;99.90;;;;;;4840412;29;20042;-89
2023/02/03 05:55:09;;;;;;;0.53;0.20;;;4.30;99.90;;;;;;4838877;29;20045;-89
2023/02/03 05:57:40;;;;;;;0.80;0.20;;;4.30;99.90;;;;;;4842108;29;20045;-89
2023/02/03 06:00:16;;;;;;;3.00;0.97;;;4.30;99.90;;;;;;4839700;29;20110;-90
2023/02/03 06:03:16;;;;;;;0.20;0.10;;;4.30;99.90;;;;;;4837638;29;20450;-89
2023/02/03 06:06:03;;;;;;;0.57;0.10;;;4.30;99.90;;;;;;4842326;29;20018;-89
2023/02/03 06:08:29;;;;;;;0.73;0.30;;;4.30;99.90;;;;;;4842966;29;20057;-87
2023/02/03 06:11:03;;;;;;;0.40;0.20;;;4.50;99.90;;;;;;4840332;29;20488;-87
2023/02/03 06:13:29;;;;;;;0.40;0.20;;;4.40;99.90;;;;;;4841164;29;20022;-87
2023/02/03 06:15:55;;;;;;;0.33;0.13;;;4.30;99.90;;;;;;4840451;29;20026;-90
2023/02/03 06:18:20;;;;;;;0.13;0.10;;;4.30;99.90;;;;;;4845447;29;20038;-90
2023/02/03 06:20:46;;;;;;;0.10;0.10;;;4.30;99.90;;;;;;4845556;29;20033;-90
2023/02/03 06:23:12;;;;;;;0.73;0.20;;;4.40;99.90;;;;;;4843640;29;20037;-90
2023/02/03 06:25:37;;;;;;;1.40;0.23;;;4.40;99.90;;;;;;4841376;29;20403;-90
2023/02/03 06:28:03;;;;;;;0.60;0.20;;;4.40;99.90;;;;;;4839506;29;20896;-90
2023/02/03 06:30:29;;;;;;;0.73;0.23;;;4.40;99.90;;;;;;4841571;29;20037;-90
2023/02/03 06:32:54;;;;;;;0.90;0.20;;;4.40;99.90;;;;;;4840999;29;20455;-90
2023/02/03 06:35:20;;;;;;;0.43;0.20;;;4.40;99.90;;;;;;4836719;29;20025;-91
2023/02/03 06:37:46;;;;;;;0.33;0.20;;;4.40;99.90;;;;;;4840989;29;20395;-90
2023/02/03 06:40:12;;;;;;;0.60;0.23;;;4.40;99.90;;;;;;4843925;29;20488;-89
2023/02/03 06:42:38;;;;;;;0.37;0.10;;;4.50;99.90;;;;;;4842145;29;20044;-90
2023/02/03 06:45:04;;;;;;;0.50;0.20;;;4.40;99.90;;;;;;4836919;29;20507;-90
2023/02/03 06:47:30;;;;;;;2.73;0.27;;;4.40;99.90;;;;;;4836835;29;20033;-91
2023/02/03 06:49:55;;;;;;;3.70;0.20;;;4.40;99.90;;;;;;4842372;29;20022;-90
2023/02/03 06:52:21;;;;;;;0.77;0.20;;;4.40;99.90;;;;;;4842550;29;20048;-90
2023/02/03 06:54:48;;;;;;;0.90;0.20;;;4.40;99.90;;;;;;4842509;29;20054;-91
2023/02/03 06:57:16;;;;;;;0.70;0.20;;;4.40;99.90;;;;;;4842605;29;20045;-90
2023/02/03 06:59:42;;;;;;;0.57;0.13;;;4.40;99.90;;;;;;4842346;29;20049;-91
2023/02/03 07:02:10;;;;;;;0.40;0.10;;;4.40;99.90;;;;;;4837783;29;20388;-90
2023/02/03 07:04:37;;;;;;;1.40;0.13;;;4.40;99.90;;;;;;4850131;29;20502;-90
2023/02/03 07:07:03;;;;;;;0.53;0.10;;;4.40;99.90;;;;;;4841468;29;20029;-90
2023/02/03 07:09:29;;;;;;;0.67;0.10;;;4.40;99.90;;;;;;4840743;29;20488;-89
2023/02/03 07:11:54;;;;;;;0.23;0.10;;;4.40;99.90;;;;;;4846558;29;20033;-90
2023/02/03 07:14:20;;;;;;;0.87;0.10;;;4.40;99.90;;;;;;4842747;29;20472;-87
2023/02/03 07:16:45;;;;;;;0.80;0.10;;;4.40;99.90;;;;;;4843997;29;20037;-86
2023/02/03 07:19:11;;;;;;;0.77;0.20;;;4.40;99.90;;;;;;4841422;29;20034;-87
2023/02/03 07:21:37;;;;;;;0.70;0.20;;;4.40;99.90;;;;;;4841124;29;20030;-87
2023/02/03 07:24:02;;;;;;;2.37;0.20;;;4.40;99.90;;;;;;4845146;29;20077;-87
2023/02/03 07:26:28;;;;;;;0.90;0.20;;;4.40;99.90;;;;;;4839529;29;20407;-87
2023/02/03 07:28:53;;;;;;;0.90;0.30;;;4.40;99.90;;;;;;4840049;29;20018;-86
2023/02/03 07:31:19;;;;;;;1.10;0.20;;;4.40;99.90;;;;;;4840285;29;20037;-87
2023/02/03 07:33:45;;;;;;;0.20;0.10;;;4.40;99.90;;;;;;4827954;29;20034;-87
2023/02/03 07:36:11;;;;;;;0.47;0.10;;;4.40;99.90;;;;;;4840396;29;20029;-86
2023/02/03 07:38:37;;;;;;;0.30;0.20;;;4.40;99.90;;;;;;4841332;29;20090;-86
2023/02/03 07:41:03;;;;;;;0.40;0.20;;;4.50;99.90;;;;;;4841239;29;20041;-87
2023/02/03 07:43:29;;;;;;;0.77;0.23;;;4.40;99.90;;;;;;4839372;29;20497;-87
2023/02/03 07:45:55;;;;;;;0.50;0.20;;;4.40;99.90;;;;;;4840699;29;20026;-87
2023/02/03 07:48:20;;;;;;;0.40;0.10;;;4.40;99.90;;;;;;4841937;29;20648;-87
2023/02/03 07:50:47;;;;;;;0.30;0.17;;;4.40;99.90;;;;;;4841571;29;20604;-86
2023/02/03 07:53:14;;;;;;;0.93;0.30;;;4.40;99.90;;;;;;4836277;29;20087;-86
2023/02/03 07:55:40;;;;;;;1.20;0.40;;;4.40;99.90;;;;;;4838417;29;20053;-86
2023/02/03 07:58:06;;;;;;;1.47;0.30;;;4.40;99.90;;;;;;4837514;29;20065;-86
2023/02/03 08:00:32;;;;;;;0.73;0.30;;;4.40;99.90;;;;;;4839224;29;20030;-86
2023/02/03 08:02:58;;;;;;;1.03;0.33;;;4.40;99.90;;;;;;4838886;29;20057;-87
2023/02/03 08:05:23;;;;;;;2.47;0.53;;;4.40;99.90;;;;;;4839523;29;20034;-86
2023/02/03 08:07:49;;;;;;;1.13;0.37;;;4.50;99.90;;;;;;4839214;29;20037;-86
2023/02/03 08:10:15;;;;;;;3.10;0.53;;;4.50;99.90;;;;;;4838009;29;20042;-86
2023/02/03 08:12:45;;;;;;;2.27;0.50;;;4.50;99.90;;;;;;4839059;29;20036;-87
2023/02/03 08:15:11;;;;;;;1.37;0.33;;;4.50;99.90;;;;;;4840323;29;20092;-86
2023/02/03 08:17:39;;;;;;;1.70;0.40;;;4.50;99.90;;;;;;4839412;29;20041;-87
2023/02/03 08:20:06;;;;;;;0.77;0.30;;;4.60;99.90;;;;;;4837618;29;20033;-87
2023/02/03 08:22:32;;;;;;;0.87;0.40;;;4.60;99.90;;;;;;4841591;29;20034;-87
2023/02/03 08:24:57;;;;;;;0.60;0.30;;;4.60;99.90;;;;;;4853139;29;20022;-87
2023/02/03 08:27:24;;;;;;;0.80;0.30;;;4.60;99.90;;;;;;4855528;29;20086;-86
2023/02/03 08:29:49;;;;;;;1.47;0.30;;;4.60;99.90;;;;;;4853918;29;20038;-85
2023/02/03 08:32:18;;;;;;;1.63;0.60;;;4.60;99.90;;;;;;4856918;29;20037;-86
2023/02/03 08:34:44;;;;;;;2.97;0.50;;;4.60;99.90;;;;;;4856646;29;20097;-84
2023/02/03 08:37:12;;;;;;;1.07;0.40;;;5.00;99.90;;;;;;4854432;29;20112;-85
2023/02/03 08:39:38;;;;;;;1.37;0.50;;;4.60;99.90;;;;;;4856629;29;20026;-85
2023/02/03 08:42:04;;;;;;;2.77;0.57;;;4.60;99.90;;;;;;4855963;29;20036;-84
2023/02/03 08:44:31;;;;;;;1.23;0.40;;;4.60;99.90;;;;;;4859811;29;20029;-85
2023/02/03 08:46:57;;;;;;;1.80;0.40;;;4.60;99.90;;;;;;4861680;29;20010;-85
2023/02/03 08:49:26;;;;;;;1.60;0.50;;;4.60;99.90;;;;;;4862468;29;20026;-84
2023/02/03 08:51:52;;;;;;;1.20;0.60;;;4.60;99.90;;;;;;4860899;29;20464;-85
2023/02/03 08:54:18;;;;;;;1.80;0.50;;;4.70;99.90;;;;;;4870136;29;20038;-84
2023/02/03 08:56:45;;;;;;;1.37;0.50;;;;;;;;;;4855799;29;20063;-85
2023/02/03 08:59:12;;;;;;;1.03;0.37;;;4.80;99.90;;;;;;4842814;29;20445;-85
2023/02/03 09:01:44;;;;;;;1.10;0.50;;;4.80;99.90;;;;;;4834780;29;20045;-85
2023/02/03 09:04:10;;;;;;;2.28;0.47;;;4.80;99.90;;;;;;4842865;29;20487;-85
2023/02/03 09:06:37;;;;;;;1.33;0.40;;;4.80;99.90;;;;;;4843050;29;20090;-84
2023/02/03 09:09:02;;;;;;;1.30;0.30;;;4.90;99.90;;;;;;4839533;29;20037;-86
2023/02/03 09:11:28;;;;;;;1.63;0.47;;;4.80;99.90;;;;;;4841272;29;20623;-85
2023/02/03 09:13:56;;;;;;;0.80;0.50;;;4.80;99.90;;;;;;4841510;29;20029;-86
2023/02/03 09:16:23;;;;;;;3.03;0.40;;;4.70;99.90;;;;;;4839221;29;20102;-86
2023/02/03 09:18:48;;;;;;;0.63;0.30;;;4.80;99.90;;;;;;4841055;29;20026;-86
2023/02/03 09:21:15;;;;;;;1.23;0.40;;;4.80;99.90;;;;;;4842144;29;20018;-87
2023/02/03 09:23:41;;;;;;;1.70;0.47;;;4.80;99.90;;;;;;4842392;29;20109;-86
2023/02/03 09:26:10;;;;;;;1.03;0.30;;;4.90;99.90;;;;;;4842163;29;20040;-86
2023/02/03 09:28:36;;;;;;;3.07;0.50;;;5.00;99.90;;;;;;4841769;29;20026;-87
2023/02/03 09:31:04;;;;;;;4.20;0.50;;;5.10;99.90;;;;;;4843032;29;20049;-86
2023/02/03 09:33:30;;;;;;;0.70;0.27;;;5.10;99.90;;;;;;4840677;29;20037;-86
2023/02/03 09:35:56;;;;;;;0.67;0.40;;;5.00;99.90;;;;;;4841655;29;20030;-85
2023/02/03 09:38:23;;;;;;;2.07;0.43;;;5.10;99.90;;;;;;4835755;29;20526;-86
2023/02/03 09:41:02;;;;;;;1.07;0.40;;;5.10;99.90;;;;;;4847531;29;20022;-86
2023/02/03 09:43:31;;;;;;;1.57;0.40;;;5.30;99.90;;;;;;4843729;29;20022;-86
2023/02/03 09:46:16;;;;;;;1.40;0.30;;;5.10;99.90;;;;;;4855203;29;20075;-86
2023/02/03 09:48:46;;;;;;;2.27;0.47;;;5.20;99.90;;;;;;4838638;29;20083;-86
2023/02/03 09:51:35;;;;;;;1.10;0.40;;;5.20;99.90;;;;;;4836189;29;20033;-86
2023/02/03 09:54:15;;;;;;;3.63;0.30;;;5.20;99.90;;;;;;4851233;29;20027;-86
2023/02/03 09:56:48;;;;;;;1.73;0.40;;;5.10;99.90;;;;;;4833395;29;20038;-87
2023/02/03 09:59:14;;;;;;;2.03;0.40;;;5.10;99.90;;;;;;4825327;29;20030;-87
2023/02/03 10:02:19;;;;;;;1.93;1.07;;;5.10;99.90;;;;;;4838867;29;20086;-86
2023/02/03 10:04:56;;;;;;;0.90;0.30;;;5.10;99.90;;;;;;4837992;29;20043;-87
2023/02/03 10:07:42;;;;;;;7.13;0.70;;;5.10;99.90;;;;;;4831991;29;20452;-87
2023/02/03 10:10:31;;;;;;;4.93;0.37;;;5.20;99.90;;;;;;4828751;29;20034;-87
2023/02/03 10:13:01;;;;;;;1.27;0.50;;;5.20;99.90;;;;;;4843220;29;20101;-86
2023/02/03 10:15:45;;;;;;;3.20;0.40;;;5.30;99.90;;;;;;4837916;29;20041;-87
2023/02/03 10:18:17;;;;;;;3.90;0.50;;;;;;;;;;4842092;29;20022;-86
2023/02/03 10:20:48;;;;;;;;;;;5.30;99.90;;;;;;4826272;29;20147;-87
2023/02/03 10:23:40;;;;;;;1.37;0.20;;;;;;;;;;4830225;29;20461;-87
2023/02/03 10:26:19;;;;;;;1.10;0.20;;;5.60;99.90;;;;;;4837272;29;20059;-86
2023/02/03 10:28:54;;;;;;;0.43;0.20;;;5.70;99.90;;;;;;4831576;29;20056;-86
2023/02/03 10:31:24;;;;;;;1.17;0.40;;;6.00;99.90;;;;;;4832775;29;20121;-85
2023/02/03 10:33:59;;;;;;;1.47;0.33;;;;;;;;;;4833754;29;20110;-86
2023/02/03 10:36:57;;;;;;;1.33;0.30;;;5.80;99.90;;;;;;4870932;29;20010;-87
2023/02/03 10:39:34;;;;;;;1.37;0.30;;;5.80;99.90;;;;;;4855696;29;20034;-87
2023/02/03 10:42:03;;;;;;;0.97;0.40;;;5.90;99.90;;;;;;4841343;29;20408;-87
2023/02/03 10:44:52;;;;;;;0.90;0.37;;;5.80;99.90;;;;;;4831455;29;20038;-86
2023/02/03 10:47:40;;;;;;;0.70;0.40;;;5.80;99.90;;;;;;4832090;29;20117;-86
2023/02/03 10:50:18;;;;;;;0.20;0.20;;;5.90;99.90;;;;;;4831512;29;20026;-86
2023/02/03 10:52:44;;;;;;;0.70;0.10;;;5.90;99.90;;;;;;4828572;29;20029;-86
2023/02/03 10:55:20;;;;;;;0.33;0.00;;;5.90;99.90;;;;;;4839266;29;20031;-86
2023/02/03 10:57:46;;;;;;;0.90;0.30;;;5.90;99.90;;;;;;4853908;29;20034;-86
2023/02/03 11:00:31;;;;;;;0.30;0.20;;;6.00;99.90;;;;;;4848808;29;20034;-87
2023/02/03 11:03:14;;;;;;;0.60;0.17;;;6.00;99.90;;;;;;4830755;29;20108;-86
2023/02/03 11:05:40;;;;;;;0.23;0.10;;;;;;;;;;4827724;29;20516;-86
2023/02/03 11:08:14;;;;;;;0.70;0.20;;;6.30;99.90;;;;;;4847332;29;20412;-87
2023/02/03 11:10:43;;;;;;;2.07;0.23;;;6.30;99.90;;;;;;4830158;29;20074;-87
2023/02/03 11:13:22;;;;;;;3.20;0.20;;;6.50;99.90;;;;;;4830605;29;20045;-87
2023/02/03 11:15:55;;;;;;;0.60;0.10;;;6.50;99.90;;;;;;4830972;29;20138;-87
2023/02/03 11:18:46;;;;;;;0.53;0.10;;;6.50;99.90;;;;;;4841134;29;20416;-86
2023/02/03 11:21:26;;;;;;;0.37;0.30;;;6.50;99.90;;;;;;4842809;29;20027;-86
2023/02/03 11:24:00;;;;;;;2.47;0.10;;;6.60;99.90;;;;;;4833711;29;20034;-87
2023/02/03 11:26:31;;;;;;;0.50;0.50;;;6.50;99.90;;;;;;4833935;29;20041;-86
2023/02/03 11:28:59;;;;;;;0.60;0.10;;;6.50;99.90;;;;;;4830682;29;20592;-87
2023/02/03 11:31:32;;;;;;;0.23;0.10;;;6.50;99.90;;;;;;4826542;29;20045;-86
2023/02/03 11:34:04;;;;;;;0.10;0.00;;;6.50;99.90;;;;;;4830500;29;20069;-86
2023/02/03 11:36:31;;;;;;;;;;;6.50;99.90;;;;;;4835723;29;20029;-86
2023/02/03 11:39:18;;;;;;;0.30;0.07;;;6.50;99.90;;;;;;4831770;29;19919;-86
2023/02/03 11:41:44;;;;;;;1.90;0.20;;;6.50;99.90;;;;;;4827598;29;20053;-86
2023/02/03 11:44:15;;;;;;;0.37;0.10;;;6.50;99.90;;;;;;4826061;29;20023;-86
2023/02/03 11:46:42;;;;;;;0.77;0.10;;;6.40;99.90;;;;;;4833119;29;20283;-87
2023/02/03 11:49:33;;;;;;;0.30;0.10;;;6.40;99.90;;;;;;4826664;29;20053;-86
2023/02/03 11:52:22;;;;;;;0.33;0.10;;;6.40;99.90;;;;;;4832717;29;20026;-85
2023/02/03 11:55:03;;;;;;;0.20;0.00;;;6.40;99.90;;;;;;4825417;29;20054;-84
2023/02/03 11:58:00;;;;;;;2.90;0.20;;;6.30;99.90;;;;;;4845122;29;20042;-87
2023/02/03 12:00:48;;;;;;;0.03;0.00;;;6.30;99.90;;;;;;4828401;29;20118;-89
2023/02/03 12:03:39;;;;;;;0.30;0.10;;;6.30;99.90;;;;;;4831768;29;20034;-87
2023/02/03 12:06:45;;;;;;;0.30;0.10;;;6.30;99.90;;;;;;4834977;29;20060;-88
2023/02/03 12:09:51;;;;;;;0.30;0.10;;;6.30;99.90;;;;;;4836601;29;20029;-88
2023/02/03 12:12:41;;;;;;;0.40;0.17;;;6.20;99.90;;;;;;4838576;29;20060;-87
2023/02/03 12:15:25;;;;;;;0.00;0.00;;;6.30;99.90;;;;;;4833997;29;20038;-87
2023/02/03 12:18:32;;;;;;;0.13;0.00;;;6.70;99.90;;;;;;4836855;29;20025;-87
2023/02/03 12:21:32;;;;;;;0.33;0.10;;;6.30;99.90;;;;;;4828375;29;20026;-87
2023/02/03 12:24:30;;;;;;;0.30;0.10;;;6.40;99.90;;;;;;4853032;29;20022;-86
2023/02/03 12:27:19;;;;;;;0.57;0.10;;;6.50;99.90;;;;;;4810433;29;20044;-89
2023/02/03 12:29:54;;;;;;;0.57;0.10;;;6.60;99.90;;;;;;4834131;29;20026;-87
2023/02/03 12:32:54;;;;;;;0.83;0.10;;;6.60;99.90;;;;;;4835572;29;20540;-86
2023/02/03 12:39:25;;;;;;;1.03;0.20;;;6.70;99.90;;;;;;4838069;29;20046;-89
2023/02/03 12:42:30;;;;;;;0.10;0.00;;;6.70;99.90;;;;;;4834105;29;20042;-88
2023/02/03 12:49:35;;;;;;;0.83;0.10;;;6.70;99.90;;;;;;4833441;29;20500;-89
2023/02/03 12:52:48;;;;;;;0.60;0.10;;;6.80;99.90;;;;;;4826052;29;20034;-88
2023/02/03 12:59:14;;;;;;;;;;;;;;;;;;;;;
2023/02/03 13:02:30;;;;;;;;;;;;;;;;;;;;;
2023/02/03 13:09:58;;;;;;;0.10;0.00;;;6.70;99.90;;;;;;4837371;29;20062;-89
2023/02/03 13:12:21;;;;;;;2.53;0.20;;;6.80;99.90;;;;;;4832852;29;20030;-88
2023/02/03 13:15:53;;;;;;;;;;;;;;;;;;;;;
2023/02/03 13:19:05;;;;;;;0.33;0.10;;;7.90;99.90;;;;;;4832615;29;20108;-89
2023/02/03 13:29:01;;;;;;;0.30;0.10;;;7.00;99.90;;;;;;4914890;23;20718;-87
2023/02/03 13:35:12;;;;;;;0.40;0.00;;;6.80;99.90;;;;;;4822317;29;20043;-87
2023/02/03 13:37:43;;;;;;;0.57;0.10;;;7.50;99.90;;;;;;4819529;29;20030;-87
2023/02/03 13:40:14;;;;;;;1.20;0.10;;;7.00;99.90;;;;;;4825222;29;20027;-87
2023/02/03 13:43:04;;;;;;;0.20;0.10;;;6.90;99.90;;;;;;4818297;29;20113;-88
2023/02/03 13:45:43;;;;;;;0.37;0.10;;;6.90;99.90;;;;;;4826299;29;20041;-87
2023/02/03 13:48:17;;;;;;;0.00;0.00;;;6.90;99.90;;;;;;4830673;29;20059;-87
2023/02/03 13:50:44;;;;;;;0.53;0.10;;;6.90;99.90;;;;;;4830393;29;20045;-88
2023/02/03 13:53:15;;;;;;;0.53;0.10;;;6.80;99.90;;;;;;4820356;29;20050;-87
2023/02/03 13:55:45;;;;;;;1.30;0.00;;;6.90;99.90;;;;;;4826320;29;20037;-88
2023/02/03 13:58:23;;;;;;;0.20;0.10;;;6.80;99.90;;;;;;4827155;29;20496;-88
2023/02/03 14:00:49;;;;;;;0.60;0.20;;;6.70;99.90;;;;;;4821756;29;20097;-88
2023/02/03 14:03:24;;;;;;;0.80;0.10;;;6.80;99.90;;;;;;4823563;29;20070;-88
2023/02/03 14:05:53;;;;;;;1.27;0.10;;;6.80;99.90;;;;;;4817918;29;20096;-88
2023/02/03 14:08:31;;;;;;;0.67;0.00;;;7.10;99.90;;;;;;4817459;29;20031;-88
2023/02/03 14:11:48;;;;;;;0.70;0.30;;;7.80;99.90;;;;;;4834098;29;20581;-88
2023/02/03 14:14:16;;;;;;;0.00;0.00;;;6.90;99.90;;;;;;4825417;29;20084;-88
2023/02/03 14:16:55;;;;;;;0.10;0.10;;;7.50;99.90;;;;;;4819853;29;20054;-88
2023/02/03 14:19:31;;;;;;;1.00;0.00;;;6.40;99.90;;;;;;4820935;29;20129;-88
2023/02/03 14:22:08;;;;;;;0.30;0.10;;;6.70;99.90;;;;;;4823435;29;20050;-87
2023/02/03 14:24:41;;;;;;;0.10;0.00;;;6.90;99.90;;;;;;4825148;29;20030;-86
2023/02/03 14:27:26;;;;;;;0.40;0.07;;;6.80;99.90;;;;;;4825631;29;20030;-86
2023/02/03 14:30:15;;;;;;;0.93;0.10;;;6.80;99.90;;;;;;4819623;29;20053;-88
2023/02/03 14:32:57;;;;;;;0.30;0.00;;;6.80;99.90;;;;;;4820692;29;20038;-88
2023/02/03 14:35:32;;;;;;;0.13;0.00;;;6.80;99.90;;;;;;4824922;29;20091;-88
2023/02/03 14:38:03;;;;;;;0.30;0.10;;;7.60;99.90;;;;;;4812597;29;20042;-88
2023/02/03 14:40:58;;;;;;;0.13;0.10;;;6.90;99.90;;;;;;4824826;29;20040;-88
2023/02/03 14:43:55;;;;;;;0.07;0.00;;;6.90;99.90;;;;;;4841201;29;20404;-88
2023/02/03 14:46:53;;;;;;;0.30;0.03;;;6.70;99.90;;;;;;4811195;29;20129;-89
2023/02/03 14:49:46;;;;;;;0.00;0.00;;;6.60;99.90;;;;;;4824529;29;20026;-87
2023/02/03 14:52:17;;;;;;;0.43;0.10;;;6.60;99.90;;;;;;4821501;29;20095;-87
2023/02/03 14:55:11;;;;;;;0.77;0.00;;;6.60;99.90;;;;;;4825652;29;20663;-87
2023/02/03 14:57:51;;;;;;;0.10;0.10;;;6.60;99.90;;;;;;4823923;29;20101;-87
2023/02/03 15:00:21;;;;;;;0.50;0.10;;;6.60;99.90;;;;;;4823360;29;20500;-87
2023/02/03 15:03:08;;;;;;;0.00;0.00;;;6.50;99.90;;;;;;4816263;29;20031;-88
2023/02/03 15:05:34;;;;;;;0.40;0.10;;;6.40;99.90;;;;;;4820126;29;20432;-87
2023/02/03 15:08:02;;;;;;;0.20;0.10;;;6.50;99.90;;;;;;4824526;29;20031;-87
2023/02/03 15:10:38;;;;;;;0.57;0.10;;;6.50;99.90;;;;;;4822676;29;20027;-87
2023/02/03 15:13:04;;;;;;;0.03;0.00;;;6.40;99.90;;;;;;4822205;29;20027;-88
2023/02/03 15:15:34;;;;;;;0.30;0.00;;;6.40;99.90;;;;;;4823291;29;20034;-87
2023/02/03 15:18:19;;;;;;;0.20;0.00;;;6.40;99.90;;;;;;4823865;29;20042;-88
2023/02/03 15:20:46;;;;;;;0.10;0.00;;;6.40;99.90;;;;;;4822085;29;20126;-87
2023/02/03 15:23:20;;;;;;;0.50;0.00;;;6.30;99.90;;;;;;4819893;29;20509;-87
2023/02/03 15:26:07;;;;;;;0.03;0.00;;;6.30;99.90;;;;;;4819199;29;20113;-88
2023/02/03 15:28:32;;;;;;;1.93;0.10;;;6.30;99.90;;;;;;4821410;29;20102;-88
2023/02/03 15:31:05;;;;;;;0.37;0.00;;;6.40;99.90;;;;;;4824646;29;20053;-88
2023/02/03 15:33:33;;;;;;;0.40;0.10;;;6.40;99.90;;;;;;4824366;29;20045;-87
2023/02/03 15:36:08;;;;;;;0.10;0.00;;;6.40;99.90;;;;;;4819096;29;20038;-87
2023/02/03 15:38:59;;;;;;;0.00;0.00;;;6.40;99.90;;;;;;4823614;29;20052;-87
2023/02/03 15:41:28;;;;;;;0.20;0.00;;;6.40;99.90;;;;;;4819335;29;20030;-88
2023/02/03 15:44:07;;;;;;;0.27;0.10;;;6.40;99.90;;;;;;4816931;29;20039;-89
2023/02/03 15:46:42;;;;;;;0.00;0.00;;;6.40;99.90;;;;;;4822219;29;20027;-88
2023/02/03 15:49:26;;;;;;;0.57;0.10;;;6.30;99.90;;;;;;4828426;29;20037;-88
2023/02/03 15:52:10;;;;;;;0.13;0.00;;;6.30;99.90;;;;;;4820548;29;20030;-88
2023/02/03 15:54:52;;;;;;;0.57;0.10;;;6.30;99.90;;;;;;4823932;29;20039;-87
2023/02/03 15:57:27;;;;;;;0.40;0.10;;;6.30;99.90;;;;;;4820329;29;20034;-88
2023/02/03 16:00:23;;;;;;;0.10;0.00;;;6.40;99.90;;;;;;4818056;29;20488;-87
2023/02/03 16:02:49;;;;;;;0.30;0.10;;;6.30;99.90;;;;;;4818726;29;20031;-89
2023/02/03 16:05:31;;;;;;;0.30;0.10;;;6.30;99.90;;;;;;4821559;29;20503;-88
2023/02/03 16:08:17;;;;;;;0.00;0.00;;;6.30;99.90;;;;;;4820882;29;20026;-87
2023/02/03 16:10:42;;;;;;;0.13;0.00;;;6.40;99.90;;;;;;4819723;29;20042;-88
2023/02/03 16:13:21;;;;;;;0.20;0.10;;;6.30;99.90;;;;;;4822837;29;20022;-88
2023/02/03 16:16:09;;;;;;;0.27;0.10;;;6.10;99.90;;;;;;4817708;29;20038;-88
2023/02/03 16:18:59;;;;;;;0.30;0.10;;;6.30;99.90;;;;;;4821769;29;20054;-88
2023/02/03 16:21:30;;;;;;;0.73;0.10;;;6.30;99.90;;;;;;4833745;29;20023;-88
2023/02/03 16:23:57;;;;;;;0.55;0.20;;;6.30;99.90;;;;;;4820906;29;20037;-87
2023/02/03 16:26:29;;;;;;;1.00;0.20;;;6.30;99.90;;;;;;4820680;29;20132;-87
2023/02/03 16:51:38;;;;;;;0.10;0.10;;;5.90;99.90;;;;;;4820984;29;20091;-88
2023/02/03 16:54:05;;;;;;;0.20;0.10;;;6.00;99.90;;;;;;4828012;29;20037;-87
2023/02/03 16:56:30;;;;;;;0.20;0.10;;;5.90;99.90;;;;;;4828450;29;20030;-88
2023/02/03 16:58:56;;;;;;;0.70;0.20;;;6.00;99.90;;;;;;4841701;29;21423;-88
2023/02/03 17:01:22;;;;;;;0.10;0.10;;;5.90;99.90;;;;;;4835249;29;20054;-87
2023/02/03 17:03:47;;;;;;;0.87;0.17;;;6.00;99.90;;;;;;4827262;29;20018;-87
2023/02/03 17:06:13;;;;;;;0.33;0.10;;;6.90;99.90;;;;;;4824519;29;20407;-87
2023/02/03 17:08:40;;;;;;;1.13;0.23;;;6.00;99.90;;;;;;4830647;29;20029;-87
2023/02/03 17:11:18;;;;;;;0.37;0.10;;;6.00;99.90;;;;;;4824910;29;20035;-87
2023/02/03 17:13:45;;;;;;;0.40;0.10;;;6.00;99.90;;;;;;4830487;29;20038;-87
2023/02/03 17:16:15;;;;;;;1.33;0.20;;;6.00;99.90;;;;;;4841250;29;20113;-87
2023/02/03 17:18:40;;;;;;;0.40;0.10;;;6.00;99.90;;;;;;4834794;29;20030;-87
2023/02/03 17:21:09;;;;;;;0.80;0.10;;;6.00;99.90;;;;;;4831924;29;20037;-87
2023/02/03 17:23:34;;;;;;;0.30;0.10;;;6.00;99.90;;;;;;4829183;29;20029;-87
2023/02/03 17:26:00;;;;;;;0.50;0.10;;;6.00;99.90;;;;;;4827210;29;20030;-88
2023/02/03 17:28:26;;;;;;;0.43;0.10;;;6.00;99.90;;;;;;4827030;29;20568;-88
2023/02/03 17:30:59;;;;;;;0.10;0.10;;;6.10;99.90;;;;;;4834358;29;20116;-87
2023/02/03 17:33:27;;;;;;;0.87;0.10;;;6.10;99.90;;;;;;4824221;29;20038;-87
2023/02/03 17:36:11;;;;;;;0.57;0.20;;;6.10;99.90;;;;;;4835793;29;20022;-86
2023/02/03 17:38:49;;;;;;;1.20;0.30;;;6.00;99.90;;;;;;4827977;29;20036;-87
2023/02/03 17:41:18;;;;;;;0.50;0.10;;;5.70;99.90;;;;;;4821262;29;20037;-86